createdAt,value
2019-02-12T00:00:12.222Z,48.86
2019-02-12T00:02:40.603Z,48.41
2019-02-12T00:05:08.991Z,49.20
2019-02-12T00:07:37.385Z,48.99
2019-02-12T00:10:06.877Z,49.04
2019-02-12T00:12:35.236Z,48.97
2019-02-12T00:15:04.634Z,48.89
2019-02-12T00:17:33.024Z,48.99
2019-02-12T00:20:01.418Z,48.99
2019-02-12T00:22:29.855Z,48.67
2019-02-12T00:24:58.215Z,49.11
2019-02-12T00:27:26.599Z,49.08
2019-02-12T00:29:54.978Z,48.96
2019-02-12T00:32:23.457Z,48.71
2019-02-12T00:34:51.841Z,48.79
2019-02-12T00:37:20.352Z,48.68
2019-02-12T00:39:48.706Z,48.77
2019-02-12T00:42:17.095Z,48.81
2019-02-12T00:44:45.478Z,48.73
2019-02-12T00:47:13.875Z,48.75
2019-02-12T00:49:42.342Z,48.45
2019-02-12T00:52:10.735Z,48.77
2019-02-12T00:54:39.122Z,48.74
2019-02-12T00:57:07.510Z,48.89
2019-02-12T00:59:35.915Z,48.58
2019-02-12T01:02:04.377Z,48.68
2019-02-12T01:04:32.761Z,48.59
2019-02-12T01:07:01.145Z,48.48
2019-02-12T01:09:29.642Z,48.78
2019-02-12T01:11:58.141Z,48.35
2019-02-12T01:14:26.516Z,48.68
2019-02-12T01:16:54.905Z,48.49
2019-02-12T01:19:23.286Z,48.48
2019-02-12T01:21:51.678Z,47.70
2019-02-12T01:24:20.224Z,48.68
2019-02-12T01:26:48.610Z,48.41
2019-02-12T01:29:17.074Z,48.63
2019-02-12T01:31:45.463Z,48.70
2019-02-12T01:34:13.849Z,48.55
2019-02-12T01:36:42.244Z,48.47
2019-02-12T01:39:11.962Z,48.44
2019-02-12T01:41:40.356Z,48.42
2019-02-12T01:44:08.741Z,48.62
2019-02-12T01:46:37.176Z,48.47
2019-02-12T01:49:05.557Z,48.45
2019-02-12T01:51:35.301Z,48.72
2019-02-12T01:54:03.714Z,48.64
2019-02-12T01:56:32.107Z,48.43
2019-02-12T01:59:00.509Z,48.52
2019-02-12T02:01:28.903Z,48.34
2019-02-12T02:03:57.278Z,48.65
2019-02-12T02:06:25.662Z,48.43
2019-02-12T02:08:54.046Z,48.69
2019-02-12T02:11:22.427Z,48.39
2019-02-12T02:13:50.824Z,48.51
2019-02-12T02:16:19.214Z,48.30
2019-02-12T02:18:47.601Z,48.47
2019-02-12T02:21:15.981Z,48.35
2019-02-12T02:23:44.381Z,48.53
2019-02-12T02:26:12.763Z,48.38
2019-02-12T02:28:41.147Z,48.15
2019-02-12T02:31:09.526Z,48.43
2019-02-12T02:33:37.901Z,48.50
2019-02-12T02:36:06.270Z,48.42
2019-02-12T02:38:34.660Z,48.37
2019-02-12T02:41:03.031Z,48.40
2019-02-12T02:43:31.427Z,48.49
2019-02-12T02:46:00.443Z,48.61
2019-02-12T02:48:28.826Z,47.95
2019-02-12T02:50:57.199Z,48.49
2019-02-12T02:53:25.585Z,48.28
2019-02-12T02:55:53.959Z,48.58
2019-02-12T02:58:22.368Z,48.53
2019-02-12T03:00:50.713Z,48.17
2019-02-12T03:03:19.096Z,48.15
2019-02-12T03:05:47.470Z,48.25
2019-02-12T03:08:15.855Z,48.53
2019-02-12T03:10:44.233Z,48.51
2019-02-12T03:13:12.617Z,47.88
2019-02-12T03:15:40.988Z,48.02
2019-02-12T03:18:09.384Z,48.27
2019-02-12T03:20:37.759Z,48.43
2019-02-12T03:23:06.139Z,48.71
2019-02-12T03:25:34.506Z,48.70
2019-02-12T03:28:02.902Z,49.18
2019-02-12T03:30:31.277Z,49.21
2019-02-12T03:32:59.657Z,49.13
2019-02-12T03:35:28.028Z,49.28
2019-02-12T03:37:56.409Z,49.34
2019-02-12T03:40:24.791Z,49.26
2019-02-12T03:42:53.171Z,49.30
2019-02-12T03:45:21.542Z,49.30
2019-02-12T03:47:49.920Z,49.41
2019-02-12T03:50:18.302Z,49.22
2019-02-12T03:52:46.681Z,49.42
2019-02-12T03:55:15.125Z,49.28
2019-02-12T03:57:43.572Z,49.18
2019-02-12T04:00:17.993Z,49.38
2019-02-12T04:03:00.350Z,49.43
2019-02-12T04:05:28.722Z,49.36
2019-02-12T04:07:57.099Z,49.30
2019-02-12T04:10:25.720Z,49.46
2019-02-12T04:12:54.098Z,49.05
2019-02-12T04:15:22.534Z,49.46
2019-02-12T04:17:50.908Z,49.67
2019-02-12T04:20:19.285Z,49.56
2019-02-12T04:22:47.662Z,49.42
2019-02-12T04:25:16.043Z,49.65
2019-02-12T04:27:44.412Z,49.35
2019-02-12T04:30:12.864Z,49.40
2019-02-12T04:32:41.235Z,49.48
2019-02-12T04:35:09.614Z,49.57
2019-02-12T04:37:37.987Z,49.56
2019-02-12T04:40:09.515Z,49.39
2019-02-12T04:42:38.124Z,49.58
2019-02-12T04:45:09.581Z,49.38
2019-02-12T04:47:37.974Z,49.42
2019-02-12T04:50:09.761Z,49.35
2019-02-12T04:52:38.147Z,49.37
2019-02-12T04:55:08.395Z,49.38
2019-02-12T04:57:36.761Z,49.51
2019-02-12T05:00:10.926Z,49.45
2019-02-12T05:02:39.314Z,49.49
2019-02-12T05:05:09.835Z,49.72
2019-02-12T05:07:38.199Z,49.58
2019-02-12T05:10:18.557Z,49.69
2019-02-12T05:12:46.933Z,49.80
2019-02-12T05:15:15.306Z,49.63
2019-02-12T05:17:43.678Z,49.89
2019-02-12T05:20:14.650Z,49.70
2019-02-12T05:22:43.902Z,49.74
2019-02-12T05:25:13.124Z,49.71
2019-02-12T05:27:41.533Z,49.25
2019-02-12T05:30:14.318Z,49.81
2019-02-12T05:32:42.708Z,49.88
2019-02-12T05:35:11.074Z,49.87
2019-02-12T05:37:39.466Z,49.96
2019-02-12T05:40:09.968Z,49.82
2019-02-12T05:42:38.342Z,49.88
2019-02-12T05:45:12.039Z,49.96
2019-02-12T05:47:40.419Z,49.82
2019-02-12T05:50:11.426Z,50.13
2019-02-12T05:52:39.796Z,50.13
2019-02-12T05:55:08.324Z,50.10
2019-02-12T05:57:36.697Z,50.21
2019-02-12T06:00:10.911Z,50.11
2019-02-12T06:02:39.285Z,50.07
2019-02-12T06:05:07.832Z,50.11
2019-02-12T06:07:36.270Z,49.99
2019-02-12T06:10:07.375Z,49.93
2019-02-12T06:12:35.748Z,50.18
2019-02-12T06:15:05.764Z,50.22
2019-02-12T06:17:34.129Z,50.13
2019-02-12T06:20:02.505Z,50.21
2019-02-12T06:22:32.013Z,50.09
2019-02-12T06:25:00.640Z,50.11
2019-02-12T06:27:29.035Z,49.95
2019-02-12T06:29:57.424Z,49.58
2019-02-12T06:32:25.797Z,49.79
2019-02-12T06:34:54.196Z,49.67
2019-02-12T06:37:22.592Z,49.73
2019-02-12T06:39:51.053Z,49.67
2019-02-12T06:42:19.451Z,49.27
2019-02-12T06:44:47.918Z,49.23
2019-02-12T06:47:16.303Z,49.37
2019-02-12T06:49:44.689Z,49.23
2019-02-12T06:52:13.125Z,48.77
2019-02-12T06:54:41.515Z,48.95
2019-02-12T06:57:09.895Z,48.94
2019-02-12T06:59:38.286Z,48.97
2019-02-12T07:02:43.206Z,49.02
2019-02-12T07:05:11.592Z,48.94
2019-02-12T07:07:49.050Z,48.93
2019-02-12T07:10:17.456Z,49.16
2019-02-12T07:12:51.686Z,48.90
2019-02-12T07:15:23.106Z,49.22
2019-02-12T07:17:59.935Z,48.84
2019-02-12T07:20:31.460Z,48.84
2019-02-12T07:23:05.734Z,49.06
2019-02-12T07:25:48.915Z,49.04
2019-02-12T07:28:38.889Z,48.67
2019-02-12T07:31:16.287Z,48.84
2019-02-12T07:34:04.675Z,49.02
2019-02-12T07:37:09.329Z,48.12
2019-02-12T07:39:40.747Z,48.72
2019-02-12T07:42:21.199Z,49.24
2019-02-12T07:45:08.897Z,48.66
2019-02-12T07:48:07.892Z,49.33
2019-02-12T07:50:51.330Z,49.30
2019-02-12T07:53:31.003Z,49.66
2019-02-12T07:56:04.924Z,49.49
2019-02-12T07:58:58.899Z,49.42
2019-02-12T08:01:51.714Z,49.89
2019-02-12T08:04:54.722Z,50.61
2019-02-12T08:07:45.775Z,43.15
2019-02-12T08:10:36.686Z,46.76
2019-02-12T08:13:13.651Z,46.58
2019-02-12T08:15:54.018Z,45.75
2019-02-12T08:18:31.287Z,45.36
2019-02-12T08:21:11.269Z,45.00
2019-02-12T08:24:16.080Z,44.78
2019-02-12T08:26:53.189Z,44.48
2019-02-12T08:29:39.437Z,44.48
2019-02-12T08:32:19.419Z,44.87
2019-02-12T08:35:08.822Z,44.72
2019-02-12T08:37:52.274Z,45.28
2019-02-12T08:40:29.755Z,45.44
2019-02-12T08:43:01.179Z,45.59
2019-02-12T08:45:41.754Z,45.54
2019-02-12T08:48:34.176Z,46.06
2019-02-12T08:51:14.764Z,46.11
2019-02-12T08:54:19.481Z,46.15
2019-02-12T08:57:09.335Z,46.48
2019-02-12T09:00:03.631Z,46.57
2019-02-12T09:02:57.912Z,46.65
2019-02-12T09:05:32.060Z,46.69
2019-02-12T09:08:03.499Z,46.88
2019-02-12T09:10:37.804Z,46.99
2019-02-12T09:13:21.270Z,46.88
2019-02-12T09:16:09.693Z,47.07
2019-02-12T09:18:47.128Z,47.00
2019-02-12T09:21:36.887Z,47.23
2019-02-12T09:24:20.207Z,47.36
2019-02-12T09:26:54.419Z,47.21
2019-02-12T09:29:42.990Z,47.41
2019-02-12T09:32:38.092Z,47.51
2019-02-12T09:35:12.663Z,47.44
2019-02-12T09:37:59.247Z,47.59
2019-02-12T09:40:39.775Z,47.41
2019-02-12T09:43:20.303Z,47.59
2019-02-12T09:46:00.283Z,47.62
2019-02-12T09:48:43.521Z,47.53
2019-02-12T09:51:14.982Z,47.67
2019-02-12T09:53:55.058Z,47.69
2019-02-12T09:56:26.486Z,47.57
2019-02-12T09:59:00.551Z,47.62
2019-02-12T10:01:56.217Z,47.62
2019-02-12T10:04:45.627Z,47.48
2019-02-12T10:07:19.689Z,47.64
2019-02-12T10:09:57.276Z,47.81
2019-02-12T10:12:40.973Z,47.63
2019-02-12T10:15:30.007Z,47.62
2019-02-12T10:18:10.599Z,47.51
2019-02-12T10:20:50.999Z,47.59
2019-02-12T10:23:39.043Z,47.61
2019-02-12T10:26:10.760Z,47.59
2019-02-12T10:29:14.211Z,47.67
2019-02-12T10:31:41.734Z,47.60
2019-02-12T10:34:10.700Z,47.63
2019-02-12T10:36:39.250Z,47.29
2019-02-12T10:39:09.265Z,47.52
2019-02-12T10:41:37.689Z,47.74
2019-02-12T10:44:06.032Z,47.76
2019-02-12T10:46:34.411Z,47.62
2019-02-12T10:49:02.796Z,47.76
2019-02-12T10:51:31.190Z,47.68
2019-02-12T10:53:59.581Z,47.85
2019-02-12T10:56:27.959Z,47.73
2019-02-12T10:58:56.351Z,47.76
2019-02-12T11:01:24.726Z,47.90
2019-02-12T11:03:53.117Z,47.99
2019-02-12T11:06:21.493Z,47.87
2019-02-12T11:08:49.882Z,47.87
2019-02-12T11:11:18.252Z,47.90
2019-02-12T11:13:46.635Z,48.02
2019-02-12T11:16:15.010Z,48.04
2019-02-12T11:18:43.400Z,48.02
2019-02-12T11:21:12.342Z,48.00
2019-02-12T11:23:40.836Z,47.95
2019-02-12T11:26:09.213Z,47.98
2019-02-12T11:28:37.597Z,47.94
2019-02-12T11:31:06.141Z,47.99
2019-02-12T11:33:34.647Z,48.02
2019-02-12T11:36:03.025Z,47.99
2019-02-12T11:38:31.407Z,47.94
2019-02-12T11:40:59.792Z,47.90
2019-02-12T11:43:28.186Z,47.85
2019-02-12T11:45:56.562Z,47.91
2019-02-12T11:48:24.941Z,47.66
2019-02-12T11:50:53.317Z,47.62
2019-02-12T11:53:21.698Z,47.74
2019-02-12T11:55:50.073Z,47.73
2019-02-12T11:58:18.477Z,47.73
2019-02-12T12:00:48.490Z,47.55
2019-02-12T12:03:16.872Z,47.71
2019-02-12T12:05:45.243Z,48.08
2019-02-12T12:08:13.631Z,47.40
2019-02-12T12:10:42.012Z,45.43
2019-02-12T12:13:10.406Z,45.55
2019-02-12T12:15:38.770Z,45.84
2019-02-12T12:18:07.391Z,46.05
2019-02-12T12:20:35.762Z,46.13
2019-02-12T12:23:04.986Z,46.30
2019-02-12T12:25:33.369Z,46.51
2019-02-12T12:28:01.758Z,46.63
2019-02-12T12:30:30.135Z,46.74
2019-02-12T12:32:58.545Z,46.65
2019-02-12T12:35:26.922Z,46.80
2019-02-12T12:37:55.305Z,46.87
2019-02-12T12:40:23.685Z,46.89
2019-02-12T12:42:52.074Z,46.83
2019-02-12T12:45:20.453Z,46.95
2019-02-12T12:47:48.838Z,46.96
2019-02-12T12:50:17.215Z,46.93
2019-02-12T12:52:45.600Z,46.89
2019-02-12T12:55:13.969Z,46.91
2019-02-12T12:57:42.440Z,47.00
2019-02-12T13:00:13.141Z,47.04
2019-02-12T13:02:41.585Z,47.15
2019-02-12T13:05:11.115Z,47.09
2019-02-12T13:07:39.601Z,46.90
2019-02-12T13:10:10.888Z,47.04
2019-02-12T13:12:39.262Z,46.93
2019-02-12T13:15:10.292Z,46.91
2019-02-12T13:17:38.666Z,46.93
2019-02-12T13:20:10.051Z,47.00
2019-02-12T13:22:38.419Z,47.18
2019-02-12T13:25:08.976Z,47.31
2019-02-12T13:27:37.391Z,47.69
2019-02-12T13:30:09.518Z,47.69
2019-02-12T13:32:37.885Z,47.63
2019-02-12T13:35:07.310Z,47.68
2019-02-12T13:37:35.677Z,47.89
2019-02-12T13:40:05.467Z,47.48
2019-02-12T13:42:33.832Z,47.48
2019-02-12T13:45:02.211Z,47.52
2019-02-12T13:47:30.583Z,47.55
2019-02-12T13:49:59.310Z,47.55
2019-02-12T13:52:27.724Z,47.63
2019-02-12T13:54:56.101Z,47.61
2019-02-12T13:57:24.746Z,47.55
2019-02-12T13:59:53.120Z,47.58
2019-02-12T14:02:21.498Z,47.40
2019-02-12T14:04:49.875Z,47.39
2019-02-12T14:07:18.251Z,47.36
2019-02-12T14:09:46.636Z,47.41
2019-02-12T14:12:15.861Z,47.40
2019-02-12T14:14:44.267Z,47.53
2019-02-12T14:17:12.639Z,47.64
2019-02-12T14:19:41.018Z,47.72
2019-02-12T14:22:09.395Z,47.82
2019-02-12T14:24:38.156Z,47.83
2019-02-12T14:27:06.513Z,47.83
2019-02-12T14:29:35.950Z,47.83
2019-02-12T14:32:04.319Z,47.85
2019-02-12T14:34:32.752Z,47.94
2019-02-12T14:37:01.121Z,47.99
2019-02-12T14:39:29.505Z,47.95
2019-02-12T14:41:57.875Z,47.97
2019-02-12T14:44:26.261Z,48.06
2019-02-12T14:46:54.630Z,47.93
2019-02-12T14:49:23.016Z,48.07
2019-02-12T14:51:51.377Z,47.66
2019-02-12T14:54:19.762Z,48.02
2019-02-12T14:56:48.131Z,47.92
2019-02-12T14:59:16.521Z,48.01
2019-02-12T15:01:44.890Z,48.02
2019-02-12T15:04:13.343Z,48.11
2019-02-12T15:06:41.719Z,47.99
2019-02-12T15:09:10.093Z,47.90
2019-02-12T15:11:38.470Z,47.88
2019-02-12T15:14:06.853Z,47.83
2019-02-12T15:16:36.153Z,47.88
2019-02-12T15:19:04.523Z,47.91
2019-02-12T15:21:32.913Z,47.79
2019-02-12T15:24:01.277Z,47.77
2019-02-12T15:26:29.669Z,47.79
2019-02-12T15:28:58.043Z,47.75
2019-02-12T15:31:26.426Z,47.64
2019-02-12T15:33:54.798Z,47.50
2019-02-12T15:36:23.183Z,47.63
2019-02-12T15:38:51.551Z,47.58
2019-02-12T15:41:19.933Z,47.50
2019-02-12T15:43:48.301Z,47.52
2019-02-12T15:46:16.692Z,47.51
2019-02-12T15:48:45.057Z,47.48
2019-02-12T15:51:13.437Z,47.39
2019-02-12T15:53:41.818Z,47.46
2019-02-12T15:56:10.199Z,47.38
2019-02-12T15:58:38.569Z,47.40
2019-02-12T16:01:06.956Z,47.33
2019-02-12T16:03:36.473Z,47.54
2019-02-12T16:06:05.433Z,47.62
2019-02-12T16:08:33.807Z,47.53
2019-02-12T16:11:02.198Z,47.75
2019-02-12T16:13:30.576Z,47.65
2019-02-12T16:15:58.973Z,47.62
2019-02-12T16:18:27.343Z,47.21
2019-02-12T16:20:55.720Z,47.18
2019-02-12T16:23:24.087Z,47.36
2019-02-12T16:25:59.329Z,47.19
2019-02-12T16:28:22.569Z,47.31
2019-02-12T16:30:50.960Z,47.31
2019-02-12T16:33:19.336Z,47.34
2019-02-12T16:35:47.715Z,47.34
2019-02-12T16:38:16.090Z,47.30
2019-02-12T16:40:44.477Z,47.39
2019-02-12T16:43:13.118Z,47.28
2019-02-12T16:45:50.432Z,47.15
2019-02-12T16:48:18.813Z,47.25
2019-02-12T16:50:47.190Z,47.21
2019-02-12T16:53:15.567Z,47.26
2019-02-12T16:55:43.942Z,47.16
2019-02-12T16:58:12.310Z,47.17
2019-02-12T17:00:40.691Z,47.27
2019-02-12T17:03:09.065Z,47.40
2019-02-12T17:05:37.518Z,46.89
2019-02-12T17:08:05.889Z,47.21
2019-02-12T17:10:34.272Z,47.27
2019-02-12T17:13:02.645Z,47.34
2019-02-12T17:15:31.031Z,47.18
2019-02-12T17:17:59.400Z,47.20
2019-02-12T17:20:27.767Z,47.33
2019-02-12T17:22:56.153Z,47.34
2019-02-12T17:25:24.521Z,47.09
2019-02-12T17:27:52.901Z,47.14
2019-02-12T17:30:21.274Z,46.99
2019-02-12T17:32:49.656Z,47.05
2019-02-12T17:35:18.024Z,47.04
2019-02-12T17:37:46.410Z,47.07
2019-02-12T17:40:18.833Z,47.21
2019-02-12T17:42:47.225Z,47.25
2019-02-12T17:45:17.791Z,47.14
2019-02-12T17:47:46.251Z,47.29
2019-02-12T17:50:15.558Z,47.06
2019-02-12T17:52:44.012Z,47.35
2019-02-12T17:55:12.376Z,47.03
2019-02-12T17:57:40.760Z,47.33
2019-02-12T18:00:13.506Z,47.40
2019-02-12T18:02:42.117Z,47.27
2019-02-12T18:05:10.554Z,47.50
2019-02-12T18:07:38.939Z,47.42
2019-02-12T18:10:09.857Z,47.28
2019-02-12T18:12:38.238Z,47.34
2019-02-12T18:15:10.206Z,47.05
2019-02-12T18:17:38.583Z,47.38
2019-02-12T18:20:10.598Z,47.32
2019-02-12T18:22:39.018Z,47.36
2019-02-12T18:25:09.772Z,47.29
2019-02-12T18:27:38.319Z,47.21
2019-02-12T18:30:10.000Z,47.59
2019-02-12T18:32:38.380Z,47.46
2019-02-12T18:35:07.793Z,47.65
2019-02-12T18:37:36.175Z,47.49
2019-02-12T18:40:10.552Z,47.49
2019-02-12T18:42:38.936Z,47.72
2019-02-12T18:45:10.682Z,48.05
2019-02-12T18:47:39.077Z,47.20
2019-02-12T18:50:10.422Z,47.72
2019-02-12T18:52:38.878Z,47.93
2019-02-12T18:55:10.594Z,47.56
2019-02-12T18:57:38.975Z,47.52
2019-02-12T19:00:13.885Z,47.58
2019-02-12T19:02:42.267Z,47.53
2019-02-12T19:05:11.102Z,47.57
2019-02-12T19:07:39.486Z,47.58
2019-02-12T19:10:10.983Z,47.68
2019-02-12T19:12:39.378Z,47.66
2019-02-12T19:15:11.162Z,47.24
2019-02-12T19:17:39.920Z,47.63
2019-02-12T19:20:13.178Z,47.60
2019-02-12T19:22:41.562Z,48.00
2019-02-12T19:25:10.868Z,47.47
2019-02-12T19:27:39.268Z,47.71
2019-02-12T19:30:12.103Z,47.50
2019-02-12T19:32:40.486Z,47.79
2019-02-12T19:35:10.500Z,47.66
2019-02-12T19:37:38.877Z,47.83
2019-02-12T19:40:09.839Z,47.79
2019-02-12T19:42:38.472Z,47.78
2019-02-12T19:45:10.227Z,47.77
2019-02-12T19:47:38.612Z,47.57
2019-02-12T19:50:08.968Z,47.79
2019-02-12T19:52:37.347Z,47.86
2019-02-12T19:55:08.059Z,47.48
2019-02-12T19:57:36.514Z,47.51
2019-02-12T20:00:08.599Z,47.72
2019-02-12T20:02:36.976Z,47.68
2019-02-12T20:05:08.459Z,47.47
2019-02-12T20:07:36.839Z,47.66
2019-02-12T20:10:07.850Z,47.92
2019-02-12T20:12:36.229Z,47.77
2019-02-12T20:15:07.440Z,47.87
2019-02-12T20:17:35.819Z,47.85
2019-02-12T20:20:05.332Z,48.06
2019-02-12T20:22:33.714Z,47.71
2019-02-12T20:25:02.080Z,47.83
2019-02-12T20:27:35.825Z,47.87
2019-02-12T20:30:00.576Z,47.82
2019-02-12T20:32:28.948Z,48.10
2019-02-12T20:34:57.320Z,48.14
2019-02-12T20:37:25.704Z,48.20
2019-02-12T20:39:54.101Z,48.59
2019-02-12T20:42:22.537Z,48.49
2019-02-12T20:44:50.927Z,48.29
2019-02-12T20:47:19.301Z,48.53
2019-02-12T20:49:47.731Z,48.35
2019-02-12T20:52:16.106Z,48.33
2019-02-12T20:54:44.524Z,48.35
2019-02-12T20:57:15.101Z,48.28
2019-02-12T20:59:43.003Z,48.37
2019-02-12T21:02:11.390Z,48.31
2019-02-12T21:04:39.771Z,47.95
2019-02-12T21:07:09.178Z,48.15
2019-02-12T21:09:37.558Z,46.93
2019-02-12T21:12:05.943Z,47.67
2019-02-12T21:14:34.483Z,47.94
2019-02-12T21:17:02.852Z,47.69
2019-02-12T21:19:31.310Z,47.96
2019-02-12T21:21:59.679Z,47.46
2019-02-12T21:24:28.059Z,46.78
2019-02-12T21:26:56.428Z,47.90
2019-02-12T21:29:24.921Z,47.96
2019-02-12T21:31:53.324Z,48.10
2019-02-12T21:34:21.705Z,47.59
2019-02-12T21:36:50.078Z,47.68
2019-02-12T21:39:20.102Z,47.66
2019-02-12T21:41:48.476Z,47.88
2019-02-12T21:44:16.860Z,48.04
2019-02-12T21:46:45.229Z,47.85
2019-02-12T21:49:13.613Z,48.02
2019-02-12T21:51:41.984Z,47.91
2019-02-12T21:54:10.374Z,47.95
2019-02-12T21:56:39.683Z,48.18
2019-02-12T21:59:08.078Z,48.13
2019-02-12T22:01:36.451Z,48.20
2019-02-12T22:04:05.026Z,47.96
2019-02-12T22:06:33.377Z,48.33
2019-02-12T22:09:01.764Z,48.16
2019-02-12T22:11:30.135Z,48.00
2019-02-12T22:13:58.516Z,48.00
2019-02-12T22:16:26.888Z,48.29
2019-02-12T22:18:55.532Z,48.19
2019-02-12T22:21:23.920Z,48.07
2019-02-12T22:23:52.315Z,48.17
2019-02-12T22:26:20.685Z,48.21
2019-02-12T22:28:49.083Z,48.30
2019-02-12T22:31:17.472Z,48.25
2019-02-12T22:33:45.854Z,47.95
2019-02-12T22:36:14.230Z,48.15
2019-02-12T22:38:42.689Z,47.79
2019-02-12T22:41:11.059Z,48.21
2019-02-12T22:43:39.997Z,47.97
2019-02-12T22:46:08.369Z,47.97
2019-02-12T22:48:36.737Z,48.13
2019-02-12T22:51:05.125Z,48.00
2019-02-12T22:53:33.496Z,48.03
2019-02-12T22:56:01.979Z,47.84
2019-02-12T22:58:30.334Z,48.07
2019-02-12T23:01:01.336Z,48.30
2019-02-12T23:03:29.702Z,48.17
2019-02-12T23:05:58.085Z,47.77
2019-02-12T23:08:26.449Z,48.25
2019-02-12T23:10:54.836Z,47.94
2019-02-12T23:13:23.247Z,47.77
2019-02-12T23:15:51.632Z,48.07
2019-02-12T23:18:20.007Z,47.12
2019-02-12T23:20:48.486Z,48.11
2019-02-12T23:23:16.864Z,48.14
2019-02-12T23:25:45.257Z,48.28
2019-02-12T23:28:13.625Z,48.00
2019-02-12T23:30:42.014Z,47.90
2019-02-12T23:33:10.385Z,48.14
2019-02-12T23:35:38.779Z,48.06
2019-02-12T23:38:07.197Z,48.14
2019-02-12T23:40:35.580Z,47.96
2019-02-12T23:43:03.947Z,48.06
2019-02-12T23:45:32.338Z,48.15
2019-02-12T23:48:00.746Z,47.91
2019-02-12T23:50:29.260Z,47.53
2019-02-12T23:52:58.108Z,47.71
2019-02-12T23:55:26.487Z,47.32
2019-02-12T23:57:54.859Z,48.01
